createdAt,value
2023-11-23T00:02:09.221Z,38.60
2023-11-23T00:04:35.659Z,32.93
2023-11-23T00:07:03.609Z,33.83
2023-11-23T00:09:30.072Z,35.43
2023-11-23T00:11:56.529Z,36.80
2023-11-23T00:14:23.040Z,37.23
2023-11-23T00:16:49.495Z,35.17
2023-11-23T00:19:15.921Z,37.07
2023-11-23T00:21:42.456Z,38.10
2023-11-23T00:24:09.100Z,38.63
2023-11-23T00:26:35.607Z,34.23
2023-11-23T00:29:02.215Z,33.67
2023-11-23T00:31:28.579Z,36.07
2023-11-23T00:33:55.167Z,34.00
2023-11-23T00:36:21.654Z,35.00
2023-11-23T00:38:48.367Z,37.57
2023-11-23T00:41:14.783Z,35.07
2023-11-23T00:43:41.172Z,38.57
2023-11-23T00:46:07.725Z,37.10
2023-11-23T00:48:34.174Z,35.37
2023-11-23T00:51:00.697Z,40.07
2023-11-23T00:53:27.071Z,40.50
2023-11-23T00:55:57.995Z,38.00
2023-11-23T00:58:24.853Z,35.87
2023-11-23T01:00:51.293Z,40.97
2023-11-23T01:03:17.906Z,37.60
2023-11-23T01:05:45.093Z,42.00
2023-11-23T01:08:12.000Z,35.93
2023-11-23T01:10:38.456Z,41.73
2023-11-23T01:13:04.808Z,40.20
2023-11-23T01:15:31.278Z,41.70
2023-11-23T01:17:57.749Z,39.03
2023-11-23T01:20:24.184Z,38.77
2023-11-23T01:22:50.595Z,40.20
2023-11-23T01:25:17.098Z,42.80
2023-11-23T01:27:43.568Z,49.53
2023-11-23T01:30:10.656Z,44.97
2023-11-23T01:32:37.370Z,38.87
2023-11-23T01:35:04.329Z,53.43
2023-11-23T01:37:30.881Z,41.97
2023-11-23T01:39:58.539Z,42.17
2023-11-23T01:42:25.005Z,40.67
2023-11-23T01:44:51.448Z,46.40
2023-11-23T01:47:18.149Z,43.57
2023-11-23T01:49:46.462Z,44.90
2023-11-23T01:52:13.123Z,47.57
2023-11-23T01:54:40.235Z,51.40
2023-11-23T01:57:08.448Z,43.20
2023-11-23T01:59:36.842Z,42.37
2023-11-23T02:02:05.938Z,41.07
2023-11-23T02:04:33.076Z,43.97
2023-11-23T02:07:00.582Z,41.47
2023-11-23T02:09:27.644Z,36.63
2023-11-23T02:11:54.065Z,40.63
2023-11-23T02:14:20.468Z,38.90
2023-11-23T02:16:47.477Z,36.93
2023-11-23T02:19:13.813Z,40.20
2023-11-23T02:21:40.222Z,42.00
2023-11-23T02:24:10.950Z,44.57
2023-11-23T02:26:37.364Z,43.83
2023-11-23T02:29:05.713Z,43.70
2023-11-23T02:31:33.986Z,42.43
2023-11-23T02:34:01.485Z,40.90
2023-11-23T02:36:27.904Z,49.47
2023-11-23T02:38:54.271Z,48.30
2023-11-23T02:41:21.250Z,44.70
2023-11-23T02:43:49.802Z,42.00
2023-11-23T02:46:16.295Z,47.20
2023-11-23T02:48:42.740Z,44.67
2023-11-23T02:51:09.274Z,44.67
2023-11-23T02:53:44.284Z,50.33
2023-11-23T02:56:11.959Z,50.53
2023-11-23T02:58:40.248Z,47.17
2023-11-23T03:01:06.829Z,45.50
2023-11-23T03:03:33.330Z,42.47
2023-11-23T03:06:01.047Z,50.13
2023-11-23T03:08:28.811Z,46.37
2023-11-23T03:10:55.438Z,46.37
2023-11-23T03:13:21.956Z,45.07
2023-11-23T03:15:51.048Z,56.37
2023-11-23T03:18:17.618Z,45.10
2023-11-23T03:20:44.158Z,40.13
2023-11-23T03:23:10.687Z,45.00
2023-11-23T03:25:37.317Z,43.90
2023-11-23T03:28:05.422Z,44.63
2023-11-23T03:30:31.837Z,43.83
2023-11-23T03:32:58.231Z,43.93
2023-11-23T03:35:24.716Z,41.57
2023-11-23T03:37:51.093Z,47.77
2023-11-23T03:40:17.445Z,47.53
2023-11-23T03:42:43.823Z,37.90
2023-11-23T03:45:10.514Z,32.97
2023-11-23T03:47:37.021Z,38.73
2023-11-23T03:50:03.618Z,35.40
2023-11-23T03:52:30.011Z,41.53
2023-11-23T03:54:56.396Z,38.50
2023-11-23T03:57:22.937Z,39.07
2023-11-23T03:59:49.495Z,42.47
2023-11-23T04:02:16.062Z,45.70
2023-11-23T04:04:42.499Z,38.73
2023-11-23T04:07:08.932Z,36.03
2023-11-23T04:09:35.550Z,40.27
2023-11-23T04:12:02.654Z,31.87
2023-11-23T04:14:31.887Z,35.73
2023-11-23T04:16:58.348Z,41.63
2023-11-23T04:19:24.744Z,36.93
2023-11-23T04:21:51.174Z,37.10
2023-11-23T04:24:17.759Z,27.00
2023-11-23T04:26:44.394Z,29.70
2023-11-23T04:29:11.619Z,35.10
2023-11-23T04:31:37.973Z,28.57
2023-11-23T04:34:04.438Z,32.93
2023-11-23T04:36:30.866Z,32.40
2023-11-23T04:38:57.570Z,32.70
2023-11-23T04:41:23.996Z,35.23
2023-11-23T04:43:50.336Z,27.63
2023-11-23T04:46:17.420Z,32.00
2023-11-23T04:48:43.842Z,37.10
2023-11-23T04:51:10.342Z,29.87
2023-11-23T04:53:36.718Z,30.33
2023-11-23T04:56:03.190Z,39.83
2023-11-23T04:58:29.544Z,31.03
2023-11-23T05:00:56.365Z,42.47
2023-11-23T05:03:22.817Z,33.07
2023-11-23T05:05:49.207Z,35.70
2023-11-23T05:08:17.017Z,31.33
2023-11-23T05:10:44.362Z,30.57
2023-11-23T05:13:11.890Z,33.77
2023-11-23T05:15:38.231Z,32.30
2023-11-23T05:18:04.754Z,38.80
2023-11-23T05:20:31.311Z,35.27
2023-11-23T05:22:58.029Z,30.87
2023-11-23T05:25:24.508Z,25.63
2023-11-23T05:27:50.888Z,24.63
2023-11-23T05:30:18.493Z,30.47
2023-11-23T05:32:46.436Z,35.97
2023-11-23T05:35:13.928Z,30.60
2023-11-23T05:37:40.767Z,29.47
2023-11-23T05:40:10.540Z,27.80
2023-11-23T05:42:37.080Z,24.80
2023-11-23T05:45:03.696Z,28.30
2023-11-23T05:47:30.113Z,27.10
2023-11-23T05:49:56.717Z,21.40
2023-11-23T05:52:23.139Z,25.53
2023-11-23T05:54:49.645Z,28.37
2023-11-23T05:57:16.053Z,23.30
2023-11-23T05:59:42.503Z,22.83
2023-11-23T06:02:09.036Z,25.80
2023-11-23T06:04:35.587Z,26.10
2023-11-23T06:07:02.496Z,25.53
2023-11-23T06:09:29.777Z,21.83
2023-11-23T06:14:22.625Z,23.93
2023-11-23T06:16:48.979Z,23.20
2023-11-23T06:19:15.442Z,23.60
2023-11-23T06:21:41.781Z,26.23
2023-11-23T06:24:08.572Z,20.43
2023-11-23T06:26:35.056Z,23.13
2023-11-23T06:29:01.478Z,19.37
2023-11-23T06:31:29.021Z,20.83
2023-11-23T06:33:55.578Z,20.77
2023-11-23T06:36:22.008Z,25.43
2023-11-23T06:38:48.490Z,17.90
2023-11-23T06:41:21.831Z,19.50
2023-11-23T06:43:49.464Z,19.50
2023-11-23T06:46:17.075Z,19.10
2023-11-23T06:48:46.950Z,25.33
2023-11-23T06:51:17.099Z,15.73
2023-11-23T06:53:47.629Z,20.90
2023-11-23T06:56:15.156Z,30.23
2023-11-23T06:58:42.496Z,29.10
2023-11-23T07:01:12.456Z,19.90
2023-11-23T07:03:39.765Z,24.40
2023-11-23T07:06:06.913Z,25.57
2023-11-23T07:08:37.679Z,18.07
2023-11-23T07:11:06.016Z,20.93
2023-11-23T07:13:33.608Z,22.13
2023-11-23T07:16:03.932Z,23.33
2023-11-23T07:18:30.908Z,22.00
2023-11-23T07:20:57.775Z,18.27
2023-11-23T07:23:24.490Z,24.83
2023-11-23T07:25:51.413Z,21.83
2023-11-23T07:28:18.008Z,20.27
2023-11-23T07:30:45.208Z,23.03
2023-11-23T07:33:12.146Z,26.60
2023-11-23T07:35:39.258Z,14.27
2023-11-23T07:38:05.964Z,22.40
2023-11-23T07:40:32.824Z,24.87
2023-11-23T07:42:59.553Z,22.17
2023-11-23T07:45:26.296Z,17.40
2023-11-23T07:47:53.035Z,22.83
2023-11-23T07:50:19.650Z,19.83
2023-11-23T07:52:47.641Z,20.43
2023-11-23T07:55:16.871Z,20.07
2023-11-23T07:57:44.475Z,20.33
2023-11-23T08:00:14.370Z,19.73
2023-11-23T08:02:41.839Z,19.17
2023-11-23T08:05:09.965Z,23.17
2023-11-23T08:07:36.417Z,22.10
2023-11-23T08:10:07.174Z,17.03
2023-11-23T08:12:34.319Z,22.57
2023-11-23T08:15:00.845Z,20.37
2023-11-23T08:17:30.617Z,13.23
2023-11-23T08:19:56.998Z,20.33
2023-11-23T08:22:23.418Z,18.63
2023-11-23T08:24:49.886Z,14.37
2023-11-23T08:27:16.463Z,15.73
2023-11-23T08:29:42.976Z,19.40
2023-11-23T08:32:09.623Z,21.17
2023-11-23T08:34:36.982Z,25.70
2023-11-23T08:37:04.223Z,19.33
2023-11-23T08:39:30.693Z,17.67
2023-11-23T08:41:57.081Z,23.53
2023-11-23T08:44:23.705Z,19.10
2023-11-23T08:46:50.114Z,19.63
2023-11-23T08:49:16.841Z,17.90
2023-11-23T08:51:43.413Z,21.83
2023-11-23T08:54:10.701Z,26.17
2023-11-23T08:56:37.251Z,24.97
2023-11-23T08:59:03.807Z,18.93
2023-11-23T09:01:30.402Z,16.67
2023-11-23T09:03:57.049Z,19.00
2023-11-23T09:06:23.921Z,19.30
2023-11-23T09:08:50.669Z,17.07
2023-11-23T09:11:17.117Z,15.87
2023-11-23T09:13:44.613Z,18.70
2023-11-23T09:16:13.248Z,21.13
2023-11-23T09:18:40.712Z,19.10
2023-11-23T09:21:07.554Z,17.47
2023-11-23T09:23:34.003Z,21.07
2023-11-23T09:26:00.406Z,15.67
2023-11-23T09:28:26.899Z,16.30
2023-11-23T09:30:53.392Z,18.57
2023-11-23T09:33:20.884Z,13.70
2023-11-23T09:35:48.000Z,17.13
2023-11-23T09:38:14.607Z,15.23
2023-11-23T09:40:44.381Z,12.40
2023-11-23T09:43:11.742Z,16.63
2023-11-23T09:45:38.465Z,18.23
2023-11-23T09:48:06.723Z,14.63
2023-11-23T09:50:37.135Z,17.97
2023-11-23T09:53:07.327Z,18.40
2023-11-23T09:55:33.728Z,12.73
2023-11-23T09:58:00.156Z,16.40
2023-11-23T10:00:26.703Z,15.57
2023-11-23T10:02:59.757Z,17.10
2023-11-23T10:05:27.396Z,16.97
2023-11-23T10:07:55.316Z,16.13
2023-11-23T10:10:22.307Z,17.30
2023-11-23T10:12:50.230Z,14.97
2023-11-23T10:15:17.013Z,17.70
2023-11-23T10:17:43.588Z,19.20
2023-11-23T10:20:17.463Z,16.23
2023-11-23T10:22:45.668Z,19.67
2023-11-23T10:25:38.617Z,11.90
2023-11-23T10:28:05.522Z,16.30
2023-11-23T10:30:32.884Z,13.80
2023-11-23T10:33:00.778Z,15.50
2023-11-23T10:35:39.852Z,17.10
2023-11-23T10:38:08.111Z,18.27
2023-11-23T10:40:35.681Z,14.97
2023-11-23T10:43:02.914Z,13.17
2023-11-23T10:45:31.339Z,15.57
2023-11-23T10:47:59.830Z,15.23
2023-11-23T10:50:27.170Z,17.40
2023-11-23T10:52:58.175Z,13.60
2023-11-23T10:55:27.474Z,13.70
2023-11-23T10:57:58.579Z,15.73
2023-11-23T11:00:27.230Z,16.17
2023-11-23T11:02:58.225Z,12.70
2023-11-23T11:05:29.492Z,17.13
2023-11-23T11:08:06.918Z,11.57
2023-11-23T11:10:41.415Z,16.90
2023-11-23T11:13:11.319Z,16.80
2023-11-23T11:15:39.420Z,15.20
2023-11-23T11:18:08.695Z,12.90
2023-11-23T11:20:35.599Z,15.80
2023-11-23T11:23:02.403Z,17.90
2023-11-23T11:25:41.765Z,16.70
2023-11-23T11:28:15.113Z,15.63
2023-11-23T11:30:43.609Z,14.83
2023-11-23T11:33:15.380Z,15.73
2023-11-23T11:35:48.375Z,18.37
2023-11-23T11:38:18.697Z,14.40
2023-11-23T11:40:49.460Z,15.83
2023-11-23T11:43:16.321Z,15.97
2023-11-23T11:45:43.459Z,12.60
2023-11-23T11:48:10.514Z,15.23
2023-11-23T11:50:37.567Z,12.93
2023-11-23T11:53:06.749Z,16.20
2023-11-23T11:55:33.166Z,15.97
2023-11-23T11:57:59.781Z,13.47
2023-11-23T12:00:26.573Z,14.20
2023-11-23T12:02:53.501Z,16.00
2023-11-23T12:05:23.754Z,15.60
2023-11-23T12:07:54.345Z,23.40
2023-11-23T12:10:21.125Z,16.80
2023-11-23T12:12:48.772Z,17.97
2023-11-23T12:15:16.805Z,21.00
2023-11-23T12:17:51.218Z,15.63
2023-11-23T12:20:18.572Z,15.30
2023-11-23T12:22:47.697Z,16.47
2023-11-23T12:25:14.117Z,17.13
2023-11-23T12:27:43.698Z,15.90
2023-11-23T12:30:11.817Z,18.73
2023-11-23T12:32:38.678Z,17.67
2023-11-23T12:35:05.679Z,17.13
2023-11-23T12:37:32.234Z,15.43
2023-11-23T12:39:58.731Z,16.80
2023-11-23T12:42:25.321Z,14.70
2023-11-23T12:44:52.006Z,18.60
2023-11-23T12:47:21.471Z,16.17
2023-11-23T12:49:48.104Z,15.67
2023-11-23T12:52:15.638Z,24.10
2023-11-23T12:54:43.571Z,17.33
2023-11-23T12:57:10.491Z,24.20
2023-11-23T12:59:37.556Z,15.30
2023-11-23T13:02:04.538Z,16.23
2023-11-23T13:04:35.178Z,17.90
2023-11-23T13:07:01.954Z,17.90
2023-11-23T13:09:29.491Z,19.33
2023-11-23T13:11:57.998Z,16.77
2023-11-23T13:14:24.557Z,17.87
2023-11-23T13:16:50.975Z,15.03
2023-11-23T13:19:26.816Z,16.47
2023-11-23T13:22:02.035Z,20.03
2023-11-23T13:24:28.902Z,15.43
2023-11-23T13:26:55.422Z,16.67
2023-11-23T13:29:21.809Z,18.67
2023-11-23T13:31:50.568Z,17.27
2023-11-23T13:34:16.971Z,17.30
2023-11-23T13:36:43.869Z,14.93
2023-11-23T13:39:14.922Z,15.80
2023-11-23T13:41:41.456Z,14.20
2023-11-23T13:44:07.900Z,20.47
2023-11-23T13:46:34.686Z,18.10
2023-11-23T13:49:01.360Z,20.03
2023-11-23T13:51:31.077Z,18.10
2023-11-23T13:53:58.593Z,17.83
2023-11-23T13:56:26.317Z,14.00
2023-11-23T13:58:53.403Z,15.87
2023-11-23T14:01:20.099Z,18.47
2023-11-23T14:03:46.649Z,13.13
2023-11-23T14:06:14.692Z,16.10
2023-11-23T14:08:41.100Z,14.17
2023-11-23T14:11:07.623Z,18.53
2023-11-23T14:13:34.286Z,13.93
2023-11-23T14:16:00.849Z,14.67
2023-11-23T14:18:29.442Z,12.33
2023-11-23T14:20:56.133Z,14.73
2023-11-23T14:23:23.097Z,18.67
2023-11-23T14:25:49.582Z,11.97
2023-11-23T14:28:16.368Z,12.80
2023-11-23T14:30:46.732Z,15.20
2023-11-23T14:33:17.056Z,15.53
2023-11-23T14:35:53.172Z,14.93
2023-11-23T14:38:20.069Z,12.20
2023-11-23T14:40:47.844Z,11.73
2023-11-23T14:43:19.235Z,11.63
2023-11-23T14:45:46.470Z,13.77
2023-11-23T14:48:13.151Z,14.37
2023-11-23T14:50:40.425Z,9.83
2023-11-23T14:53:07.355Z,14.03
2023-11-23T14:55:33.944Z,14.33
2023-11-23T14:58:00.506Z,15.90
2023-11-23T15:00:27.128Z,20.30
2023-11-23T15:02:53.988Z,11.93
2023-11-23T15:05:20.673Z,18.57
2023-11-23T15:07:47.582Z,10.17
2023-11-23T15:10:19.902Z,12.73
2023-11-23T15:12:54.332Z,16.97
2023-11-23T15:15:22.107Z,14.80
2023-11-23T15:17:50.048Z,15.57
2023-11-23T15:20:17.017Z,21.43
2023-11-23T15:22:43.708Z,15.13
2023-11-23T15:25:11.631Z,16.83
2023-11-23T15:27:38.808Z,14.83
2023-11-23T15:30:06.147Z,16.33
2023-11-23T15:32:38.421Z,15.63
2023-11-23T15:35:08.515Z,14.90
2023-11-23T15:37:35.149Z,10.07
2023-11-23T15:40:01.558Z,16.37
2023-11-23T15:42:27.989Z,13.43
2023-11-23T15:44:54.361Z,17.23
2023-11-23T15:47:21.127Z,10.67
2023-11-23T15:49:48.224Z,13.33
2023-11-23T15:52:14.853Z,14.00
2023-11-23T15:54:41.598Z,19.40
2023-11-23T15:57:08.184Z,14.83
2023-11-23T15:59:34.705Z,22.17
2023-11-23T16:02:02.032Z,18.23
2023-11-23T16:04:28.686Z,19.97
2023-11-23T16:06:55.372Z,18.83
2023-11-23T16:09:24.154Z,18.30
2023-11-23T16:11:50.987Z,17.33
2023-11-23T16:14:17.449Z,24.43
2023-11-23T16:16:43.931Z,22.07
2023-11-23T16:19:11.788Z,30.07
2023-11-23T16:21:38.739Z,31.23
2023-11-23T16:24:05.981Z,15.07
2023-11-23T16:26:33.264Z,6.13
2023-11-23T16:29:01.946Z,8.00
2023-11-23T16:31:28.430Z,6.13
2023-11-23T16:33:57.276Z,9.43
2023-11-23T16:36:32.930Z,8.20
2023-11-23T16:39:05.576Z,10.80
2023-11-23T16:41:32.349Z,17.07
2023-11-23T16:43:58.758Z,9.53
2023-11-23T16:46:25.257Z,7.53
2023-11-23T16:48:51.791Z,11.97
2023-11-23T16:51:20.006Z,11.97
2023-11-23T16:53:46.625Z,13.43
2023-11-23T16:56:14.185Z,11.83
2023-11-23T16:58:40.589Z,16.17
2023-11-23T17:01:07.005Z,15.77
2023-11-23T17:03:33.637Z,17.30
2023-11-23T17:06:01.611Z,17.07
2023-11-23T17:08:31.381Z,14.13
2023-11-23T17:10:59.218Z,18.50
2023-11-23T17:13:26.276Z,21.07
2023-11-23T17:15:52.904Z,15.20
2023-11-23T17:18:21.011Z,15.20
2023-11-23T17:20:47.610Z,20.10
2023-11-23T17:23:15.829Z,18.13
2023-11-23T17:25:42.365Z,21.97
2023-11-23T17:28:08.783Z,21.00
2023-11-23T17:30:35.614Z,23.20
2023-11-23T17:33:02.165Z,23.40
2023-11-23T17:35:29.136Z,17.43
2023-11-23T17:37:55.810Z,23.83
2023-11-23T17:40:22.823Z,26.10
2023-11-23T17:42:49.312Z,17.77
2023-11-23T17:45:15.806Z,21.27
2023-11-23T17:47:45.109Z,24.37
2023-11-23T17:50:12.919Z,23.57
2023-11-23T17:52:39.833Z,19.13
2023-11-23T17:55:07.184Z,20.93
2023-11-23T17:57:35.569Z,22.27
2023-11-23T18:00:06.957Z,23.70
2023-11-23T18:02:34.514Z,26.20
2023-11-23T18:05:01.260Z,22.80
2023-11-23T18:07:27.664Z,30.17
2023-11-23T18:09:54.228Z,22.87
2023-11-23T18:12:21.327Z,20.37
2023-11-23T18:14:47.954Z,23.27
2023-11-23T18:17:14.376Z,21.03
2023-11-23T18:19:41.473Z,18.47
2023-11-23T18:22:08.985Z,18.27
2023-11-23T18:24:35.708Z,17.97
2023-11-23T18:27:07.200Z,18.10
2023-11-23T18:29:34.203Z,15.87
2023-11-23T18:32:04.477Z,18.10
2023-11-23T18:34:31.032Z,20.63
2023-11-23T18:36:57.516Z,22.90
2023-11-23T18:39:24.409Z,23.87
2023-11-23T18:41:51.031Z,23.73
2023-11-23T18:44:17.374Z,18.70
2023-11-23T18:46:45.293Z,25.53
2023-11-23T18:49:12.125Z,27.07
2023-11-23T18:51:38.929Z,28.87
2023-11-23T18:54:05.545Z,24.40
2023-11-23T18:56:32.742Z,28.63
2023-11-23T18:58:59.664Z,41.23
2023-11-23T19:01:26.150Z,30.33
2023-11-23T19:03:52.758Z,30.27
2023-11-23T19:06:19.419Z,24.57
2023-11-23T19:08:46.513Z,27.47
2023-11-23T19:11:14.934Z,22.90
2023-11-23T19:13:41.738Z,26.53
2023-11-23T19:16:11.383Z,27.57
2023-11-23T19:18:39.094Z,28.83
2023-11-23T19:21:06.788Z,28.87
2023-11-23T19:23:33.987Z,25.47
2023-11-23T19:26:01.372Z,25.30
2023-11-23T19:28:28.115Z,25.93
2023-11-23T19:30:56.332Z,27.90
2023-11-23T19:33:23.199Z,29.50
2023-11-23T19:35:50.462Z,31.50
2023-11-23T19:38:19.490Z,24.03
2023-11-23T19:40:47.208Z,25.90
2023-11-23T19:43:15.966Z,23.47
2023-11-23T19:45:43.278Z,28.30
2023-11-23T19:48:10.709Z,25.97
2023-11-23T19:50:37.629Z,17.70
2023-11-23T19:53:05.495Z,24.57
2023-11-23T19:55:34.601Z,24.23
2023-11-23T19:58:01.407Z,11.70
2023-11-23T20:00:30.008Z,11.10
2023-11-23T20:02:58.305Z,5.77
2023-11-23T20:05:26.394Z,9.47
2023-11-23T20:07:52.801Z,7.30
2023-11-23T20:10:21.852Z,5.53
2023-11-23T20:12:49.184Z,6.97
2023-11-23T20:15:15.652Z,8.90
2023-11-23T20:17:42.146Z,7.23
2023-11-23T20:20:11.078Z,13.00
2023-11-23T20:22:37.753Z,12.37
2023-11-23T20:25:05.008Z,11.10
2023-11-23T20:27:31.528Z,18.33
2023-11-23T20:29:58.926Z,14.60
2023-11-23T20:32:25.336Z,14.83
2023-11-23T20:34:51.713Z,15.20
2023-11-23T20:37:18.084Z,15.27
2023-11-23T20:39:45.138Z,15.73
2023-11-23T20:42:12.485Z,18.70
2023-11-23T20:44:39.599Z,14.27
2023-11-23T20:47:06.168Z,14.13
2023-11-23T20:49:33.231Z,20.60
2023-11-23T20:52:00.123Z,15.83
2023-11-23T20:54:26.771Z,21.73
2023-11-23T20:56:57.414Z,22.67
2023-11-23T20:59:25.304Z,20.77
2023-11-23T21:01:52.970Z,21.07
2023-11-23T21:04:24.962Z,19.43
2023-11-23T21:07:01.434Z,18.23
2023-11-23T21:09:29.371Z,20.33
2023-11-23T21:11:56.176Z,15.47
2023-11-23T21:14:24.240Z,22.17
2023-11-23T21:16:50.652Z,19.17
2023-11-23T21:19:17.164Z,17.40
2023-11-23T21:21:43.930Z,17.53
2023-11-23T21:24:11.478Z,21.10
2023-11-23T21:26:37.896Z,17.93
2023-11-23T21:29:04.446Z,28.07
2023-11-23T21:31:30.904Z,22.13
2023-11-23T21:33:59.010Z,22.70
2023-11-23T21:36:27.314Z,22.67
2023-11-23T21:38:53.755Z,19.27
2023-11-23T21:41:20.260Z,22.30
2023-11-23T21:43:46.745Z,18.20
2023-11-23T21:46:21.503Z,17.83
2023-11-23T21:48:48.967Z,18.70
2023-11-23T21:51:29.195Z,24.03
2023-11-23T21:53:57.702Z,20.33
2023-11-23T21:56:24.460Z,14.50
2023-11-23T21:58:50.896Z,25.90
2023-11-23T22:01:17.387Z,21.10
2023-11-23T22:03:44.049Z,21.17
2023-11-23T22:06:11.002Z,20.97
2023-11-23T22:08:37.494Z,20.97
2023-11-23T22:11:05.110Z,18.00
2023-11-23T22:13:31.505Z,22.77
2023-11-23T22:15:58.620Z,18.27
2023-11-23T22:18:25.203Z,17.23
2023-11-23T22:20:51.699Z,18.83
2023-11-23T22:23:18.417Z,18.67
2023-11-23T22:25:44.999Z,18.30
2023-11-23T22:28:11.659Z,17.47
2023-11-23T22:30:40.963Z,15.53
2023-11-23T22:33:08.222Z,19.17
2023-11-23T22:35:35.089Z,18.10
2023-11-23T22:38:06.665Z,13.57
2023-11-23T22:40:35.070Z,14.60
2023-11-23T22:43:01.758Z,14.93
2023-11-23T22:45:28.529Z,21.67
2023-11-23T22:47:54.944Z,17.20
2023-11-23T22:50:21.472Z,16.73
2023-11-23T22:52:47.850Z,14.43
2023-11-23T22:55:14.252Z,23.07
2023-11-23T22:57:40.951Z,22.83
2023-11-23T23:00:15.525Z,20.33
2023-11-23T23:02:42.010Z,17.20
2023-11-23T23:05:09.981Z,16.97
2023-11-23T23:07:37.272Z,18.67
2023-11-23T23:10:04.006Z,16.17
2023-11-23T23:12:30.470Z,16.20
2023-11-23T23:14:56.867Z,18.80
2023-11-23T23:17:23.326Z,17.67
2023-11-23T23:19:49.728Z,19.97
2023-11-23T23:22:24.355Z,17.73
2023-11-23T23:24:55.240Z,23.43
2023-11-23T23:27:21.767Z,18.63
2023-11-23T23:29:48.138Z,20.23
2023-11-23T23:32:14.571Z,22.60
2023-11-23T23:34:41.235Z,19.60
2023-11-23T23:37:08.298Z,23.87
2023-11-23T23:39:34.757Z,19.17
2023-11-23T23:42:01.146Z,20.77
2023-11-23T23:44:27.745Z,18.53
2023-11-23T23:46:56.736Z,17.90
2023-11-23T23:49:23.733Z,18.57
2023-11-23T23:51:51.587Z,27.33
2023-11-23T23:54:19.342Z,15.93
2023-11-23T23:56:45.867Z,18.07
2023-11-23T23:59:12.338Z,19.43
